sensor_id;sensor_type;location;lat;lon;timestamp;pressure;altitude;pressure_sealevel;temperature;humidity
9672;BME280;4874;43.568;27.824;2023-07-20T00:00:41;98301.78;;;25.49;100.00
9672;BME280;4874;43.568;27.824;2023-07-20T00:03:12;98280.31;;;25.26;100.00
9672;BME280;4874;43.568;27.824;2023-07-20T00:05:43;98307.84;;;25.57;100.00
9672;BME280;4874;43.568;27.824;2023-07-20T00:08:10;98260.50;;;25.31;100.00
9672;BME280;4874;43.568;27.824;2023-07-20T00:10:37;98308.66;;;25.57;100.00
9672;BME280;4874;43.568;27.824;2023-07-20T00:13:04;98320.34;;;25.58;100.00
9672;BME280;4874;43.568;27.824;2023-07-20T00:15:31;98323.69;;;25.65;100.00
9672;BME280;4874;43.568;27.824;2023-07-20T00:17:57;98295.66;;;25.59;100.00
9672;BME280;4874;43.568;27.824;2023-07-20T00:20:24;98325.34;;;25.44;100.00
9672;BME280;4874;43.568;27.824;2023-07-20T00:22:52;98331.56;;;25.39;100.00
9672;BME280;4874;43.568;27.824;2023-07-20T00:25:19;98331.56;;;25.39;100.00
9672;BME280;4874;43.568;27.824;2023-07-20T00:27:45;98327.34;;;25.32;100.00
9672;BME280;4874;43.568;27.824;2023-07-20T00:30:12;98324.63;;;25.48;100.00
9672;BME280;4874;43.568;27.824;2023-07-20T00:32:39;98314.22;;;25.24;100.00
9672;BME280;4874;43.568;27.824;2023-07-20T00:35:06;98316.50;;;25.32;100.00
9672;BME280;4874;43.568;27.824;2023-07-20T00:37:33;98316.56;;;25.15;100.00
9672;BME280;4874;43.568;27.824;2023-07-20T00:40:00;98316.56;;;25.37;100.00
9672;BME280;4874;43.568;27.824;2023-07-20T00:42:27;98314.88;;;25.09;100.00
9672;BME280;4874;43.568;27.824;2023-07-20T00:44:54;98312.53;;;24.96;100.00
9672;BME280;4874;43.568;27.824;2023-07-20T00:47:20;98276.97;;;25.19;100.00
9672;BME280;4874;43.568;27.824;2023-07-20T00:49:47;98305.13;;;25.57;100.00
9672;BME280;4874;43.568;27.824;2023-07-20T00:52:14;98305.09;;;25.30;100.00
9672;BME280;4874;43.568;27.824;2023-07-20T00:54:41;98272.44;;;24.82;100.00
9672;BME280;4874;43.568;27.824;2023-07-20T00:57:09;98305.91;;;25.09;100.00
9672;BME280;4874;43.568;27.824;2023-07-20T00:59:36;98270.22;;;25.00;100.00
9672;BME280;4874;43.568;27.824;2023-07-20T01:02:03;98306.03;;;25.19;100.00
9672;BME280;4874;43.568;27.824;2023-07-20T01:04:30;98301.72;;;24.80;100.00
9672;BME280;4874;43.568;27.824;2023-07-20T01:07:06;98307.03;;;24.91;100.00
9672;BME280;4874;43.568;27.824;2023-07-20T01:09:59;98301.47;;;25.03;100.00
9672;BME280;4874;43.568;27.824;2023-07-20T01:12:39;98295.16;;;25.19;100.00
9672;BME280;4874;43.568;27.824;2023-07-20T01:15:08;98306.47;;;25.11;100.00
9672;BME280;4874;43.568;27.824;2023-07-20T01:17:35;98308.66;;;25.57;100.00
9672;BME280;4874;43.568;27.824;2023-07-20T01:20:03;98301.09;;;25.16;100.00
9672;BME280;4874;43.568;27.824;2023-07-20T01:33:09;98316.19;;;25.50;100.00
9672;BME280;4874;43.568;27.824;2023-07-20T01:35:41;98332.88;;;25.37;100.00
9672;BME280;4874;43.568;27.824;2023-07-20T01:38:11;98311.16;;;24.94;100.00
9672;BME280;4874;43.568;27.824;2023-07-20T01:40:40;98389.66;;;25.17;100.00
9672;BME280;4874;43.568;27.824;2023-07-20T01:43:07;98395.41;;;25.20;100.00
9672;BME280;4874;43.568;27.824;2023-07-20T01:45:34;98387.59;;;25.02;100.00
9672;BME280;4874;43.568;27.824;2023-07-20T01:48:01;98401.97;;;25.03;100.00
9672;BME280;4874;43.568;27.824;2023-07-20T01:50:27;98415.72;;;24.96;100.00
9672;BME280;4874;43.568;27.824;2023-07-20T01:52:55;98351.56;;;25.12;100.00
9672;BME280;4874;43.568;27.824;2023-07-20T01:55:21;98402.78;;;25.63;100.00
9672;BME280;4874;43.568;27.824;2023-07-20T01:57:48;98421.63;;;25.70;100.00
9672;BME280;4874;43.568;27.824;2023-07-20T02:00:15;98405.81;;;25.67;100.00
9672;BME280;4874;43.568;27.824;2023-07-20T02:02:42;98406.84;;;25.61;100.00
9672;BME280;4874;43.568;27.824;2023-07-20T02:05:09;98415.50;;;25.58;100.00
9672;BME280;4874;43.568;27.824;2023-07-20T02:07:36;98399.63;;;25.49;100.00
9672;BME280;4874;43.568;27.824;2023-07-20T02:10:03;98394.66;;;25.41;100.00
9672;BME280;4874;43.568;27.824;2023-07-20T02:12:30;98397.16;;;25.48;100.00
9672;BME280;4874;43.568;27.824;2023-07-20T02:14:57;98398.50;;;25.45;100.00
9672;BME280;4874;43.568;27.824;2023-07-20T02:17:24;98395.72;;;25.40;100.00
9672;BME280;4874;43.568;27.824;2023-07-20T02:19:53;98391.41;;;25.44;100.00
9672;BME280;4874;43.568;27.824;2023-07-20T02:22:21;98381.56;;;25.38;100.00
9672;BME280;4874;43.568;27.824;2023-07-20T02:24:48;98379.91;;;25.37;100.00
9672;BME280;4874;43.568;27.824;2023-07-20T02:27:16;98329.53;;;25.08;100.00
9672;BME280;4874;43.568;27.824;2023-07-20T02:29:42;98364.75;;;25.41;100.00
9672;BME280;4874;43.568;27.824;2023-07-20T02:32:09;98357.91;;;25.61;100.00
9672;BME280;4874;43.568;27.824;2023-07-20T02:34:37;98294.94;;;25.25;100.00
9672;BME280;4874;43.568;27.824;2023-07-20T02:37:05;98347.78;;;25.56;100.00
9672;BME280;4874;43.568;27.824;2023-07-20T02:39:31;98349.56;;;25.02;100.00
9672;BME280;4874;43.568;27.824;2023-07-20T02:41:58;98345.47;;;25.70;100.00
9672;BME280;4874;43.568;27.824;2023-07-20T02:44:25;98328.38;;;25.47;100.00
9672;BME280;4874;43.568;27.824;2023-07-20T02:46:51;98334.34;;;25.44;100.00
9672;BME280;4874;43.568;27.824;2023-07-20T02:49:18;98327.81;;;25.24;100.00
9672;BME280;4874;43.568;27.824;2023-07-20T02:51:45;98307.97;;;25.23;100.00
9672;BME280;4874;43.568;27.824;2023-07-20T02:54:12;98325.22;;;25.34;100.00
9672;BME280;4874;43.568;27.824;2023-07-20T02:56:39;98325.63;;;25.21;100.00
9672;BME280;4874;43.568;27.824;2023-07-20T02:59:06;98317.06;;;25.34;100.00
9672;BME280;4874;43.568;27.824;2023-07-20T03:01:32;98317.16;;;25.17;100.00
9672;BME280;4874;43.568;27.824;2023-07-20T03:03:59;98313.66;;;25.00;100.00
9672;BME280;4874;43.568;27.824;2023-07-20T03:06:26;98309.56;;;24.98;100.00
9672;BME280;4874;43.568;27.824;2023-07-20T03:08:53;98299.56;;;25.25;100.00
9672;BME280;4874;43.568;27.824;2023-07-20T03:11:20;98302.94;;;25.10;100.00
9672;BME280;4874;43.568;27.824;2023-07-20T03:13:48;98290.50;;;25.36;100.00
9672;BME280;4874;43.568;27.824;2023-07-20T03:16:17;98254.13;;;24.94;100.00
9672;BME280;4874;43.568;27.824;2023-07-20T03:18:44;98294.03;;;25.36;100.00
9672;BME280;4874;43.568;27.824;2023-07-20T03:21:11;98290.91;;;25.49;100.00
9672;BME280;4874;43.568;27.824;2023-07-20T03:23:41;98284.75;;;25.86;100.00
9672;BME280;4874;43.568;27.824;2023-07-20T03:26:09;98290.22;;;25.91;100.00
9672;BME280;4874;43.568;27.824;2023-07-20T03:28:37;98226.16;;;25.73;100.00
9672;BME280;4874;43.568;27.824;2023-07-20T03:31:04;98270.41;;;25.95;100.00
9672;BME280;4874;43.568;27.824;2023-07-20T03:33:31;98241.88;;;25.98;100.00
9672;BME280;4874;43.568;27.824;2023-07-20T03:35:58;98225.47;;;25.88;100.00
9672;BME280;4874;43.568;27.824;2023-07-20T03:38:26;98212.84;;;26.03;100.00
9672;BME280;4874;43.568;27.824;2023-07-20T03:40:58;98206.91;;;25.21;100.00
9672;BME280;4874;43.568;27.824;2023-07-20T03:43:26;98189.38;;;24.86;100.00
9672;BME280;4874;43.568;27.824;2023-07-20T03:45:54;98186.06;;;25.05;100.00
9672;BME280;4874;43.568;27.824;2023-07-20T03:48:21;98180.13;;;25.08;100.00
9672;BME280;4874;43.568;27.824;2023-07-20T03:50:49;98161.88;;;25.30;100.00
9672;BME280;4874;43.568;27.824;2023-07-20T03:53:17;98166.66;;;25.45;100.00
9672;BME280;4874;43.568;27.824;2023-07-20T03:55:51;98180.25;;;25.45;100.00
9672;BME280;4874;43.568;27.824;2023-07-20T03:58:19;98176.97;;;25.43;100.00
9672;BME280;4874;43.568;27.824;2023-07-20T04:00:47;98164.66;;;25.09;100.00
9672;BME280;4874;43.568;27.824;2023-07-20T04:03:14;98148.66;;;25.12;100.00
9672;BME280;4874;43.568;27.824;2023-07-20T04:05:42;98078.78;;;24.76;100.00
9672;BME280;4874;43.568;27.824;2023-07-20T04:08:09;98138.59;;;25.71;100.00
9672;BME280;4874;43.568;27.824;2023-07-20T04:10:38;98151.28;;;25.97;100.00
9672;BME280;4874;43.568;27.824;2023-07-20T04:13:05;98171.59;;;26.21;100.00
9672;BME280;4874;43.568;27.824;2023-07-20T04:15:32;98182.63;;;26.46;100.00
9672;BME280;4874;43.568;27.824;2023-07-20T04:17:58;98197.75;;;26.27;100.00
9672;BME280;4874;43.568;27.824;2023-07-20T04:20:25;98193.00;;;26.08;100.00
9672;BME280;4874;43.568;27.824;2023-07-20T04:22:52;98237.16;;;26.20;100.00
9672;BME280;4874;43.568;27.824;2023-07-20T04:25:19;98239.38;;;26.28;100.00
9672;BME280;4874;43.568;27.824;2023-07-20T04:27:46;98244.44;;;26.09;100.00
9672;BME280;4874;43.568;27.824;2023-07-20T04:30:13;98256.94;;;26.05;100.00
9672;BME280;4874;43.568;27.824;2023-07-20T04:32:40;98264.59;;;26.13;100.00
9672;BME280;4874;43.568;27.824;2023-07-20T04:35:18;98283.66;;;26.13;100.00
9672;BME280;4874;43.568;27.824;2023-07-20T04:37:45;98294.56;;;26.18;100.00
9672;BME280;4874;43.568;27.824;2023-07-20T04:40:15;98286.88;;;25.84;100.00
9672;BME280;4874;43.568;27.824;2023-07-20T04:42:42;98296.16;;;25.83;100.00
9672;BME280;4874;43.568;27.824;2023-07-20T04:45:09;98289.38;;;25.59;100.00
9672;BME280;4874;43.568;27.824;2023-07-20T04:47:35;98291.69;;;25.45;100.00
9672;BME280;4874;43.568;27.824;2023-07-20T04:50:03;98288.25;;;25.54;100.00
9672;BME280;4874;43.568;27.824;2023-07-20T04:52:30;98280.97;;;25.60;100.00
9672;BME280;4874;43.568;27.824;2023-07-20T04:55:07;98295.56;;;25.54;100.00
9672;BME280;4874;43.568;27.824;2023-07-20T04:57:34;98307.03;;;25.83;100.00
9672;BME280;4874;43.568;27.824;2023-07-20T05:00:01;98308.66;;;25.57;100.00
9672;BME280;4874;43.568;27.824;2023-07-20T05:02:29;98299.25;;;25.70;100.00
9672;BME280;4874;43.568;27.824;2023-07-20T05:04:56;98291.53;;;25.57;100.00
9672;BME280;4874;43.568;27.824;2023-07-20T05:07:23;98287.75;;;25.63;100.00
9672;BME280;4874;43.568;27.824;2023-07-20T05:09:49;98300.44;;;25.79;100.00
9672;BME280;4874;43.568;27.824;2023-07-20T05:12:16;98290.53;;;25.94;100.00
9672;BME280;4874;43.568;27.824;2023-07-20T05:14:45;98279.06;;;26.19;100.00
9672;BME280;4874;43.568;27.824;2023-07-20T05:17:12;98277.97;;;26.20;100.00
9672;BME280;4874;43.568;27.824;2023-07-20T05:19:39;98304.31;;;26.14;100.00
9672;BME280;4874;43.568;27.824;2023-07-20T05:22:09;98309.94;;;26.03;100.00
9672;BME280;4874;43.568;27.824;2023-07-20T05:24:37;98319.88;;;25.92;100.00
9672;BME280;4874;43.568;27.824;2023-07-20T05:27:04;98333.38;;;25.82;100.00
9672;BME280;4874;43.568;27.824;2023-07-20T05:29:31;98329.22;;;25.75;100.00
9672;BME280;4874;43.568;27.824;2023-07-20T05:31:58;98322.81;;;25.86;100.00
9672;BME280;4874;43.568;27.824;2023-07-20T05:34:25;98285.41;;;25.44;100.00
9672;BME280;4874;43.568;27.824;2023-07-20T05:36:51;98321.69;;;25.82;100.00
9672;BME280;4874;43.568;27.824;2023-07-20T05:39:18;98297.56;;;25.90;100.00
9672;BME280;4874;43.568;27.824;2023-07-20T05:41:45;98310.63;;;25.88;100.00
9672;BME280;4874;43.568;27.824;2023-07-20T05:44:12;98341.16;;;25.25;100.00
9672;BME280;4874;43.568;27.824;2023-07-20T05:46:39;98338.09;;;25.38;100.00
9672;BME280;4874;43.568;27.824;2023-07-20T05:49:20;98339.72;;;25.39;100.00
9672;BME280;4874;43.568;27.824;2023-07-20T05:51:47;98359.91;;;25.05;100.00
9672;BME280;4874;43.568;27.824;2023-07-20T05:54:14;98357.13;;;25.38;100.00
9672;BME280;4874;43.568;27.824;2023-07-20T05:56:40;98367.31;;;25.31;100.00
9672;BME280;4874;43.568;27.824;2023-07-20T05:59:08;98373.19;;;25.23;100.00
9672;BME280;4874;43.568;27.824;2023-07-20T06:01:34;98374.97;;;25.34;100.00
9672;BME280;4874;43.568;27.824;2023-07-20T06:04:01;98378.88;;;25.65;100.00
9672;BME280;4874;43.568;27.824;2023-07-20T06:06:28;98386.63;;;25.13;100.00
9672;BME280;4874;43.568;27.824;2023-07-20T06:08:54;98398.53;;;25.29;100.00
9672;BME280;4874;43.568;27.824;2023-07-20T06:11:21;98397.16;;;24.88;100.00
9672;BME280;4874;43.568;27.824;2023-07-20T06:13:48;98399.38;;;25.13;100.00
9672;BME280;4874;43.568;27.824;2023-07-20T06:16:15;98400.47;;;25.50;100.00
9672;BME280;4874;43.568;27.824;2023-07-20T06:18:42;98414.56;;;25.69;100.00
9672;BME280;4874;43.568;27.824;2023-07-20T06:21:08;98338.31;;;24.94;100.00
9672;BME280;4874;43.568;27.824;2023-07-20T06:23:35;98382.84;;;25.14;100.00
9672;BME280;4874;43.568;27.824;2023-07-20T06:26:02;98385.53;;;25.52;100.00
9672;BME280;4874;43.568;27.824;2023-07-20T06:28:28;98382.19;;;25.45;100.00
9672;BME280;4874;43.568;27.824;2023-07-20T06:31:02;98379.28;;;25.52;100.00
9672;BME280;4874;43.568;27.824;2023-07-20T06:33:29;98385.72;;;25.24;100.00
9672;BME280;4874;43.568;27.824;2023-07-20T06:35:56;98380.66;;;25.33;100.00
9672;BME280;4874;43.568;27.824;2023-07-20T06:38:25;98370.25;;;25.73;100.00
9672;BME280;4874;43.568;27.824;2023-07-20T06:40:55;98377.94;;;25.76;100.00
9672;BME280;4874;43.568;27.824;2023-07-20T06:43:22;98375.13;;;25.44;100.00
9672;BME280;4874;43.568;27.824;2023-07-20T06:45:52;98369.88;;;25.38;100.00
9672;BME280;4874;43.568;27.824;2023-07-20T06:48:22;98371.50;;;25.61;100.00
9672;BME280;4874;43.568;27.824;2023-07-20T06:50:49;98374.34;;;25.71;100.00
9672;BME280;4874;43.568;27.824;2023-07-20T06:53:15;98366.75;;;25.51;100.00
9672;BME280;4874;43.568;27.824;2023-07-20T06:55:43;98360.25;;;25.52;100.00
9672;BME280;4874;43.568;27.824;2023-07-20T06:58:11;98363.88;;;26.11;100.00
9672;BME280;4874;43.568;27.824;2023-07-20T07:00:38;98358.16;;;25.86;100.00
9672;BME280;4874;43.568;27.824;2023-07-20T07:03:05;98346.09;;;25.77;100.00
9672;BME280;4874;43.568;27.824;2023-07-20T07:05:35;98345.06;;;25.56;100.00
9672;BME280;4874;43.568;27.824;2023-07-20T07:08:06;98347.69;;;25.99;100.00
9672;BME280;4874;43.568;27.824;2023-07-20T07:10:35;98349.81;;;25.92;100.00
9672;BME280;4874;43.568;27.824;2023-07-20T07:13:02;98360.22;;;25.74;100.00
9672;BME280;4874;43.568;27.824;2023-07-20T07:15:31;98360.94;;;25.42;100.00
9672;BME280;4874;43.568;27.824;2023-07-20T07:17:58;98346.19;;;25.87;100.00
9672;BME280;4874;43.568;27.824;2023-07-20T07:20:26;98308.69;;;25.14;100.00
9672;BME280;4874;43.568;27.824;2023-07-20T07:22:55;98348.78;;;26.25;100.00
9672;BME280;4874;43.568;27.824;2023-07-20T07:25:22;98332.94;;;26.17;100.00
9672;BME280;4874;43.568;27.824;2023-07-20T07:27:50;98341.50;;;26.04;100.00
9672;BME280;4874;43.568;27.824;2023-07-20T07:30:18;98348.44;;;26.16;100.00
9672;BME280;4874;43.568;27.824;2023-07-20T07:32:44;98363.47;;;25.71;100.00
9672;BME280;4874;43.568;27.824;2023-07-20T07:35:11;98355.75;;;26.79;100.00
9672;BME280;4874;43.568;27.824;2023-07-20T07:37:39;98354.81;;;27.10;100.00
9672;BME280;4874;43.568;27.824;2023-07-20T07:40:18;98353.22;;;26.36;100.00
9672;BME280;4874;43.568;27.824;2023-07-20T07:42:44;98355.59;;;26.64;100.00
9672;BME280;4874;43.568;27.824;2023-07-20T07:45:11;98351.50;;;26.61;100.00
9672;BME280;4874;43.568;27.824;2023-07-20T07:47:39;98343.66;;;26.33;100.00
9672;BME280;4874;43.568;27.824;2023-07-20T07:50:06;98337.31;;;26.23;100.00
9672;BME280;4874;43.568;27.824;2023-07-20T07:52:33;98357.75;;;26.62;100.00
9672;BME280;4874;43.568;27.824;2023-07-20T07:55:00;98344.00;;;26.42;100.00
9672;BME280;4874;43.568;27.824;2023-07-20T07:57:27;98331.72;;;26.71;100.00
9672;BME280;4874;43.568;27.824;2023-07-20T07:59:53;98337.69;;;26.68;100.00
9672;BME280;4874;43.568;27.824;2023-07-20T08:02:20;98340.75;;;26.77;100.00
9672;BME280;4874;43.568;27.824;2023-07-20T08:04:47;98338.56;;;26.74;100.00
9672;BME280;4874;43.568;27.824;2023-07-20T08:07:14;98343.72;;;26.75;100.00
9672;BME280;4874;43.568;27.824;2023-07-20T08:09:41;98351.69;;;26.87;100.00
9672;BME280;4874;43.568;27.824;2023-07-20T08:12:08;98356.16;;;26.66;100.00
9672;BME280;4874;43.568;27.824;2023-07-20T08:14:35;98354.69;;;26.53;100.00
9672;BME280;4874;43.568;27.824;2023-07-20T08:17:01;98355.22;;;26.82;100.00
9672;BME280;4874;43.568;27.824;2023-07-20T08:19:29;98357.91;;;26.77;100.00
9672;BME280;4874;43.568;27.824;2023-07-20T08:21:55;98344.84;;;26.79;100.00
9672;BME280;4874;43.568;27.824;2023-07-20T08:24:22;98305.81;;;26.32;100.00
9672;BME280;4874;43.568;27.824;2023-07-20T08:26:49;98359.34;;;26.21;100.00
9672;BME280;4874;43.568;27.824;2023-07-20T08:29:16;98365.13;;;27.03;100.00
9672;BME280;4874;43.568;27.824;2023-07-20T08:31:42;98355.81;;;26.89;100.00
9672;BME280;4874;43.568;27.824;2023-07-20T08:34:09;98359.44;;;27.05;100.00
9672;BME280;4874;43.568;27.824;2023-07-20T08:36:49;98359.78;;;27.18;100.00
9672;BME280;4874;43.568;27.824;2023-07-20T08:39:16;98361.41;;;26.73;100.00
9672;BME280;4874;43.568;27.824;2023-07-20T08:41:43;98358.41;;;27.21;100.00
9672;BME280;4874;43.568;27.824;2023-07-20T08:44:10;98319.41;;;27.15;100.00
9672;BME280;4874;43.568;27.824;2023-07-20T08:46:38;98350.22;;;27.83;100.00
9672;BME280;4874;43.568;27.824;2023-07-20T08:49:06;98341.72;;;27.69;100.00
9672;BME280;4874;43.568;27.824;2023-07-20T08:51:33;98344.28;;;28.06;100.00
9672;BME280;4874;43.568;27.824;2023-07-20T08:54:02;98348.41;;;28.28;100.00
9672;BME280;4874;43.568;27.824;2023-07-20T08:56:31;98342.94;;;28.63;100.00
9672;BME280;4874;43.568;27.824;2023-07-20T08:58:59;98354.16;;;28.52;100.00
9672;BME280;4874;43.568;27.824;2023-07-20T09:01:28;98348.09;;;28.20;100.00
9672;BME280;4874;43.568;27.824;2023-07-20T09:03:56;98333.28;;;27.80;100.00
9672;BME280;4874;43.568;27.824;2023-07-20T09:06:23;98345.34;;;28.05;100.00
9672;BME280;4874;43.568;27.824;2023-07-20T09:08:50;98347.56;;;28.48;100.00
9672;BME280;4874;43.568;27.824;2023-07-20T09:11:17;98347.22;;;29.10;100.00
9672;BME280;4874;43.568;27.824;2023-07-20T09:13:44;98333.34;;;28.81;100.00
9672;BME280;4874;43.568;27.824;2023-07-20T09:16:13;98342.59;;;29.00;100.00
9672;BME280;4874;43.568;27.824;2023-07-20T09:18:41;98327.84;;;28.96;100.00
9672;BME280;4874;43.568;27.824;2023-07-20T09:21:08;98336.63;;;29.62;100.00
9672;BME280;4874;43.568;27.824;2023-07-20T09:23:37;98332.84;;;29.96;100.00
9672;BME280;4874;43.568;27.824;2023-07-20T09:26:13;98331.66;;;29.69;100.00
9672;BME280;4874;43.568;27.824;2023-07-20T09:28:48;98333.44;;;29.93;100.00
9672;BME280;4874;43.568;27.824;2023-07-20T09:31:19;98332.84;;;29.96;100.00
9672;BME280;4874;43.568;27.824;2023-07-20T09:33:47;98328.47;;;30.34;100.00
9672;BME280;4874;43.568;27.824;2023-07-20T09:36:17;98330.97;;;30.36;100.00
9672;BME280;4874;43.568;27.824;2023-07-20T09:39:04;98320.22;;;30.39;100.00
9672;BME280;4874;43.568;27.824;2023-07-20T09:41:40;98323.16;;;31.05;100.00
9672;BME280;4874;43.568;27.824;2023-07-20T09:44:10;98287.84;;;30.75;100.00
9672;BME280;4874;43.568;27.824;2023-07-20T09:46:41;98320.19;;;30.73;100.00
9672;BME280;4874;43.568;27.824;2023-07-20T09:49:11;98312.97;;;30.53;100.00
9672;BME280;4874;43.568;27.824;2023-07-20T09:51:42;98312.59;;;30.65;100.00
9672;BME280;4874;43.568;27.824;2023-07-20T09:54:10;98295.78;;;31.00;100.00
9672;BME280;4874;43.568;27.824;2023-07-20T09:56:37;98293.94;;;30.95;100.00
9672;BME280;4874;43.568;27.824;2023-07-20T09:59:04;98318.66;;;31.38;100.00
9672;BME280;4874;43.568;27.824;2023-07-20T10:01:32;98335.09;;;30.62;100.00
9672;BME280;4874;43.568;27.824;2023-07-20T10:04:03;98318.25;;;31.02;100.00
9672;BME280;4874;43.568;27.824;2023-07-20T10:06:32;98315.75;;;31.05;100.00
9672;BME280;4874;43.568;27.824;2023-07-20T10:09:03;98312.69;;;31.73;100.00
9672;BME280;4874;43.568;27.824;2023-07-20T10:11:31;98309.34;;;31.76;100.00
9672;BME280;4874;43.568;27.824;2023-07-20T10:14:03;98317.88;;;31.32;100.00
9672;BME280;4874;43.568;27.824;2023-07-20T10:16:35;98303.97;;;31.47;100.00
9672;BME280;4874;43.568;27.824;2023-07-20T10:19:07;98298.59;;;31.61;100.00
9672;BME280;4874;43.568;27.824;2023-07-20T10:21:42;98295.34;;;32.28;100.00
9672;BME280;4874;43.568;27.824;2023-07-20T10:24:17;98287.09;;;31.77;100.00
9672;BME280;4874;43.568;27.824;2023-07-20T10:26:45;98285.75;;;31.56;99.54
9672;BME280;4874;43.568;27.824;2023-07-20T10:29:12;98285.66;;;31.80;98.18
9672;BME280;4874;43.568;27.824;2023-07-20T10:31:39;98295.72;;;31.71;98.91
9672;BME280;4874;43.568;27.824;2023-07-20T10:34:06;98282.34;;;32.01;98.91
9672;BME280;4874;43.568;27.824;2023-07-20T10:36:44;98283.84;;;32.45;96.31
9672;BME280;4874;43.568;27.824;2023-07-20T10:39:26;98282.75;;;32.59;95.56
9672;BME280;4874;43.568;27.824;2023-07-20T10:42:06;98278.88;;;32.28;97.67
9672;BME280;4874;43.568;27.824;2023-07-20T10:44:37;98279.47;;;32.44;96.59
9672;BME280;4874;43.568;27.824;2023-07-20T10:47:09;98231.16;;;32.24;96.01
9672;BME280;4874;43.568;27.824;2023-07-20T10:50:00;98267.38;;;31.94;97.44
9672;BME280;4874;43.568;27.824;2023-07-20T10:52:36;98261.41;;;32.05;97.54
9672;BME280;4874;43.568;27.824;2023-07-20T10:55:16;98263.91;;;32.20;96.90
9672;BME280;4874;43.568;27.824;2023-07-20T10:57:43;98261.16;;;32.53;96.51
9672;BME280;4874;43.568;27.824;2023-07-20T11:00:30;98265.31;;;32.18;97.33
9672;BME280;4874;43.568;27.824;2023-07-20T11:02:58;98246.13;;;32.32;96.75
9672;BME280;4874;43.568;27.824;2023-07-20T11:05:39;98253.75;;;32.35;94.81
9672;BME280;4874;43.568;27.824;2023-07-20T11:08:11;98255.28;;;33.00;93.54
9672;BME280;4874;43.568;27.824;2023-07-20T11:10:39;98253.75;;;33.21;92.45
9672;BME280;4874;43.568;27.824;2023-07-20T11:13:23;98254.03;;;32.52;89.96
9672;BME280;4874;43.568;27.824;2023-07-20T11:18:27;98241.75;;;32.31;93.18
9672;BME280;4874;43.568;27.824;2023-07-20T11:20:54;98231.88;;;31.79;96.55
9672;BME280;4874;43.568;27.824;2023-07-20T11:23:21;98198.97;;;32.11;95.58
9672;BME280;4874;43.568;27.824;2023-07-20T11:25:48;98230.63;;;32.54;95.28
9672;BME280;4874;43.568;27.824;2023-07-20T11:28:16;98219.41;;;32.64;93.93
9672;BME280;4874;43.568;27.824;2023-07-20T11:30:43;98175.09;;;32.25;94.62
9672;BME280;4874;43.568;27.824;2023-07-20T11:33:10;98209.66;;;32.58;94.67
9672;BME280;4874;43.568;27.824;2023-07-20T11:35:46;98205.56;;;32.42;94.89
9672;BME280;4874;43.568;27.824;2023-07-20T11:38:17;98209.56;;;32.63;93.87
9672;BME280;4874;43.568;27.824;2023-07-20T11:40:45;98199.75;;;32.71;94.53
9672;BME280;4874;43.568;27.824;2023-07-20T11:43:12;98179.22;;;32.68;93.60
9672;BME280;4874;43.568;27.824;2023-07-20T11:45:42;98189.44;;;33.17;94.00
9672;BME280;4874;43.568;27.824;2023-07-20T11:48:16;98167.91;;;32.70;92.01
9672;BME280;4874;43.568;27.824;2023-07-20T11:50:43;98190.91;;;32.87;92.53
9672;BME280;4874;43.568;27.824;2023-07-20T11:53:10;98184.91;;;32.99;91.98
9672;BME280;4874;43.568;27.824;2023-07-20T11:55:40;98182.34;;;33.16;91.89
9672;BME280;4874;43.568;27.824;2023-07-20T11:58:08;98189.84;;;33.24;91.11
9672;BME280;4874;43.568;27.824;2023-07-20T12:00:37;98185.00;;;33.07;90.30
9672;BME280;4874;43.568;27.824;2023-07-20T12:03:06;98180.44;;;33.03;90.44
9672;BME280;4874;43.568;27.824;2023-07-20T12:05:34;98139.25;;;33.11;90.35
9672;BME280;4874;43.568;27.824;2023-07-20T12:08:13;98177.75;;;33.83;88.20
9672;BME280;4874;43.568;27.824;2023-07-20T12:10:41;98177.00;;;33.33;88.94
9672;BME280;4874;43.568;27.824;2023-07-20T12:13:10;98170.34;;;33.48;87.92
9672;BME280;4874;43.568;27.824;2023-07-20T12:15:38;98168.78;;;33.55;88.79
9672;BME280;4874;43.568;27.824;2023-07-20T12:18:05;98080.94;;;33.23;88.76
9672;BME280;4874;43.568;27.824;2023-07-20T12:20:36;98159.69;;;33.55;87.32
9672;BME280;4874;43.568;27.824;2023-07-20T12:23:13;98161.84;;;33.58;86.66
9672;BME280;4874;43.568;27.824;2023-07-20T12:25:42;98141.38;;;33.50;87.07
9672;BME280;4874;43.568;27.824;2023-07-20T12:28:13;98168.91;;;33.50;83.58
9672;BME280;4874;43.568;27.824;2023-07-20T12:30:41;98158.41;;;33.52;83.45
9672;BME280;4874;43.568;27.824;2023-07-20T12:33:09;98158.22;;;33.71;85.01
9672;BME280;4874;43.568;27.824;2023-07-20T12:35:36;98161.53;;;34.03;85.50
9672;BME280;4874;43.568;27.824;2023-07-20T12:38:03;98163.16;;;33.82;83.68
9672;BME280;4874;43.568;27.824;2023-07-20T12:40:30;98165.28;;;33.85;83.85
9672;BME280;4874;43.568;27.824;2023-07-20T12:42:57;98164.94;;;34.00;82.19
9672;BME280;4874;43.568;27.824;2023-07-20T12:45:24;98157.91;;;33.72;83.01
9672;BME280;4874;43.568;27.824;2023-07-20T12:47:51;98167.84;;;33.82;82.40
9672;BME280;4874;43.568;27.824;2023-07-20T12:50:17;98158.72;;;33.95;81.98
9672;BME280;4874;43.568;27.824;2023-07-20T12:52:44;98161.72;;;33.63;81.43
9672;BME280;4874;43.568;27.824;2023-07-20T12:55:11;98137.88;;;33.58;82.08
9672;BME280;4874;43.568;27.824;2023-07-20T12:57:38;98164.53;;;33.71;79.97
9672;BME280;4874;43.568;27.824;2023-07-20T13:00:07;98159.66;;;33.68;80.59
9672;BME280;4874;43.568;27.824;2023-07-20T13:02:37;98153.91;;;33.56;78.94
9672;BME280;4874;43.568;27.824;2023-07-20T13:05:05;98156.78;;;33.95;78.06
9672;BME280;4874;43.568;27.824;2023-07-20T13:07:33;98153.03;;;33.69;78.12
9672;BME280;4874;43.568;27.824;2023-07-20T13:10:03;98131.06;;;33.56;78.54
9672;BME280;4874;43.568;27.824;2023-07-20T13:12:32;98159.72;;;33.77;79.46
9672;BME280;4874;43.568;27.824;2023-07-20T13:15:03;98123.84;;;33.46;78.26
9672;BME280;4874;43.568;27.824;2023-07-20T13:17:47;98156.63;;;34.22;76.82
9672;BME280;4874;43.568;27.824;2023-07-20T13:20:13;98148.94;;;34.11;76.84
9672;BME280;4874;43.568;27.824;2023-07-20T13:22:40;98143.72;;;33.87;78.00